Time;durP1;ratioP1;P1;durP2;ratioP2;P2;SDS_P1;SDS_P2;PMS_P1;PMS_P2;Temp;Humidity;BMP_temperature;BMP_pressure;BME280_temperature;BME280_humidity;BME280_pressure;Samples;Min_cycle;Max_cycle;Signal;HPM_P1;HPM_P2
2022/04/20 00:00:57;;;;;;;6.20;3.10;;;14.10;32.20;;;;;;5091700;27;20471;-87
2022/04/20 00:03:27;;;;;;;3.00;2.80;;;14.10;31.90;;;;;;5099676;27;20958;-86
2022/04/20 00:05:54;;;;;;;4.03;2.37;;;14.00;32.30;;;;;;5081289;27;20446;-87
2022/04/20 00:08:25;;;;;;;3.70;2.73;;;14.00;33.10;;;;;;5098176;27;20504;-87
2022/04/20 00:10:52;;;;;;;4.20;3.47;;;13.90;33.30;;;;;;5093793;27;20461;-86
2022/04/20 00:13:22;;;;;;;3.13;2.53;;;13.90;33.20;;;;;;5097460;27;20460;-87
2022/04/20 00:15:52;;;;;;;3.80;2.30;;;13.90;32.70;;;;;;5093022;27;20549;-87
2022/04/20 00:18:20;;;;;;;2.50;2.17;;;13.80;32.50;;;;;;5093058;27;20481;-84
2022/04/20 00:20:48;;;;;;;3.87;2.50;;;13.80;32.40;;;;;;5091819;28;20548;-86
2022/04/20 00:23:16;;;;;;;4.93;2.50;;;13.80;32.60;;;;;;5087776;27;20539;-88
2022/04/20 00:25:44;;;;;;;3.13;2.57;;;13.80;32.60;;;;;;5093504;28;20427;-87
2022/04/20 00:28:14;;;;;;;3.10;2.50;;;13.80;32.40;;;;;;5112132;27;20442;-86
2022/04/20 00:30:44;;;;;;;4.77;3.37;;;13.70;32.60;;;;;;5078256;28;20514;-86
2022/04/20 00:33:12;;;;;;;3.80;3.10;;;13.70;32.70;;;;;;5095827;28;20441;-86
2022/04/20 00:35:42;;;;;;;3.37;2.67;;;13.70;33.00;;;;;;5086731;27;20450;-86
2022/04/20 00:38:11;;;;;;;4.17;2.93;;;13.70;33.40;;;;;;5085872;28;20472;-87
2022/04/20 00:40:39;;;;;;;4.40;2.60;;;13.60;33.50;;;;;;5086250;28;20846;-86
2022/04/20 00:43:08;;;;;;;4.47;2.90;;;13.60;33.10;;;;;;5086518;28;20554;-85
2022/04/20 00:45:38;;;;;;;3.20;2.90;;;13.60;32.90;;;;;;5085730;28;20446;-86
2022/04/20 00:48:10;;;;;;;4.13;2.90;;;13.60;33.40;;;;;;5097543;28;20909;-86
2022/04/20 00:50:39;;;;;;;4.73;3.20;;;13.50;33.70;;;;;;5062242;28;20469;-87
2022/04/20 00:53:08;;;;;;;3.57;2.83;;;13.40;34.80;;;;;;5094458;28;20442;-88
2022/04/20 00:55:37;;;;;;;4.93;3.00;;;13.40;34.60;;;;;;5078273;28;21157;-88
2022/04/20 00:58:10;;;;;;;2.27;2.07;;;13.40;34.10;;;;;;5075362;28;21290;-87
2022/04/20 01:00:39;;;;;;;2.80;2.50;;;13.30;34.60;;;;;;5096014;28;20458;-86
2022/04/20 01:03:08;;;;;;;10.83;2.57;;;13.30;34.60;;;;;;5078228;28;21039;-87
2022/04/20 01:06:16;;;;;;;4.20;2.77;;;13.30;34.80;;;;;;5078076;28;20450;-86
2022/04/20 01:09:11;;;;;;;3.40;2.43;;;13.20;34.60;;;;;;5092044;28;20462;-86
2022/04/20 01:12:14;;;;;;;3.83;2.40;;;13.20;34.80;;;;;;5086534;28;20456;-88
2022/04/20 01:15:17;;;;;;;3.23;2.63;;;13.10;34.70;;;;;;5077627;28;20538;-87
2022/04/20 01:18:13;;;;;;;6.40;2.87;;;13.00;34.80;;;;;;5091708;28;21108;-86
2022/04/20 01:20:52;;;;;;;4.63;3.17;;;12.90;34.40;;;;;;5092777;28;20462;-86
2022/04/20 01:23:47;;;;;;;4.60;2.70;;;12.80;34.30;;;;;;5073691;27;20454;-88
2022/04/20 01:26:34;;;;;;;3.97;2.97;;;12.80;34.40;;;;;;5091612;28;20430;-86
2022/04/20 01:29:22;;;;;;;3.97;2.80;;;12.70;34.60;;;;;;5072564;27;20596;-87
2022/04/20 01:32:03;;;;;;;2.80;2.60;;;12.60;34.70;;;;;;5086788;27;20971;-87
2022/04/20 01:34:52;;;;;;;4.17;2.57;;;12.60;35.60;;;;;;5082612;27;21089;-86
2022/04/20 01:37:22;;;;;;;6.10;2.73;;;12.70;35.80;;;;;;5100342;27;20519;-87
2022/04/20 01:39:52;;;;;;;3.50;2.87;;;12.70;36.20;;;;;;5080906;27;20469;-86
2022/04/20 01:42:20;;;;;;;6.23;3.00;;;12.70;36.40;;;;;;5086822;27;21137;-86
2022/04/20 01:44:50;;;;;;;3.10;2.80;;;12.60;36.40;;;;;;5107053;27;20433;-87
2022/04/20 01:47:32;;;;;;;3.13;2.83;;;12.60;36.50;;;;;;5099825;27;20525;-86
2022/04/20 01:50:19;;;;;;;3.30;3.00;;;12.50;36.50;;;;;;5115853;27;20550;-86
2022/04/20 01:53:06;;;;;;;4.33;2.90;;;12.40;37.20;;;;;;5083144;27;20961;-89
2022/04/20 01:56:06;;;;;;;3.27;2.97;;;12.20;37.10;;;;;;5034737;27;20450;-86
2022/04/20 01:58:54;;;;;;;6.20;3.90;;;12.10;37.00;;;;;;5089476;27;20550;-87
2022/04/20 02:04:28;;;;;;;3.10;2.67;;;11.90;38.30;;;;;;5091115;27;20426;-86
2022/04/20 02:06:57;;;;;;;3.93;3.07;;;11.90;37.90;;;;;;5090501;27;21288;-88
2022/04/20 02:09:31;;;;;;;3.53;3.10;;;11.90;37.90;;;;;;5084475;27;20565;-86
2022/04/20 02:12:02;;;;;;;3.50;3.20;;;12.00;37.90;;;;;;5085274;28;21200;-87
2022/04/20 02:15:03;;;;;;;4.00;3.47;;;12.00;37.80;;;;;;5063582;27;20443;-88
2022/04/20 02:17:53;;;;;;;3.67;2.93;;;12.10;37.60;;;;;;5115915;27;20443;-87
2022/04/20 02:20:31;;;;;;;4.37;3.33;;;12.10;37.40;;;;;;5100549;27;20461;-86
2022/04/20 02:23:01;;;;;;;3.47;3.03;;;12.10;37.80;;;;;;5088620;27;20783;-86
2022/04/20 02:25:31;;;;;;;3.53;3.00;;;12.00;38.10;;;;;;5088963;27;20822;-87
2022/04/20 02:28:00;;;;;;;3.50;2.90;;;12.00;37.90;;;;;;5100398;27;20475;-88
2022/04/20 02:30:27;;;;;;;3.17;2.57;;;12.00;37.80;;;;;;5067915;27;20463;-87
2022/04/20 02:32:56;;;;;;;6.80;3.70;;;11.80;36.80;;;;;;5075029;27;20522;-86
2022/04/20 02:35:27;;;;;;;3.17;2.87;;;11.60;37.60;;;;;;5077919;27;20446;-86
2022/04/20 02:37:55;;;;;;;2.97;2.60;;;11.40;37.90;;;;;;5088330;27;20439;-86
2022/04/20 02:40:23;;;;;;;3.50;3.20;;;11.30;38.40;;;;;;5098208;27;20556;-86
2022/04/20 02:42:53;;;;;;;4.93;3.30;;;11.10;37.80;;;;;;5088345;27;20530;-86
2022/04/20 02:45:22;;;;;;;3.30;3.00;;;10.90;38.00;;;;;;5088183;27;20459;-88
2022/04/20 02:47:50;;;;;;;4.70;2.90;;;10.90;38.10;;;;;;5089605;27;21181;-87
2022/04/20 02:50:18;;;;;;;3.10;2.77;;;10.70;38.50;;;;;;5082356;27;20454;-86
2022/04/20 02:52:48;;;;;;;2.80;2.60;;;10.80;38.90;;;;;;5079865;27;20498;-87
2022/04/20 02:55:16;;;;;;;4.20;3.00;;;10.70;38.90;;;;;;5088631;27;20471;-86
2022/04/20 02:57:44;;;;;;;3.70;3.00;;;10.60;39.10;;;;;;5079533;28;20443;-86
2022/04/20 03:00:16;;;;;;;3.63;2.87;;;10.70;39.30;;;;;;5080541;27;20519;-86
2022/04/20 03:02:56;;;;;;;6.33;2.80;;;10.50;39.20;;;;;;5082938;27;20469;-87
2022/04/20 03:05:26;;;;;;;3.20;2.90;;;10.60;39.10;;;;;;5085077;27;20874;-86
2022/04/20 03:07:55;;;;;;;3.87;3.23;;;10.70;39.30;;;;;;5073138;27;20447;-86
2022/04/20 03:10:25;;;;;;;3.20;2.83;;;10.60;39.30;;;;;;5099362;27;20460;-86
2022/04/20 03:12:54;;;;;;;3.27;2.77;;;10.10;39.50;;;;;;5080058;27;20458;-87
2022/04/20 03:15:25;;;;;;;6.30;4.03;;;9.90;41.30;;;;;;5087275;27;20508;-86
2022/04/20 03:17:54;;;;;;;6.60;3.50;;;10.00;40.60;;;;;;5082899;27;20499;-88
2022/04/20 03:20:23;;;;;;;5.27;2.50;;;10.10;39.90;;;;;;5096184;27;20868;-86
2022/04/20 03:22:51;;;;;;;3.20;2.90;;;10.30;40.50;;;;;;5100548;27;20452;-87
2022/04/20 03:25:21;;;;;;;2.63;2.40;;;10.40;40.20;;;;;;5080789;27;20537;-86
2022/04/20 03:28:07;;;;;;;4.60;3.57;;;10.60;39.90;;;;;;5081760;27;20442;-86
2022/04/20 03:30:39;;;;;;;16.50;3.40;;;10.60;39.50;;;;;;5089040;27;21036;-86
2022/04/20 03:33:09;;;;;;;3.40;3.10;;;10.60;39.50;;;;;;5103241;27;20469;-89
2022/04/20 03:35:38;;;;;;;4.87;4.37;;;10.60;39.70;;;;;;5083108;27;20492;-86
2022/04/20 03:38:06;;;;;;;10.20;5.40;;;10.60;39.60;;;;;;5100290;27;21304;-86
2022/04/20 03:40:36;;;;;;;6.73;6.10;;;10.50;39.90;;;;;;5096392;27;20470;-91
2022/04/20 03:43:04;;;;;;;5.33;3.43;;;10.50;40.40;;;;;;5097650;27;20808;-86
2022/04/20 03:45:32;;;;;;;4.37;3.80;;;10.50;40.40;;;;;;5096069;28;20438;-87
2022/04/20 03:48:04;;;;;;;5.80;3.70;;;10.50;40.30;;;;;;5088810;27;20506;-86
2022/04/20 03:50:32;;;;;;;4.70;3.50;;;10.50;40.30;;;;;;5099008;27;20542;-86
2022/04/20 03:53:01;;;;;;;4.10;3.23;;;10.50;40.40;;;;;;5081679;27;20482;-88
2022/04/20 03:55:30;;;;;;;3.77;3.23;;;10.50;40.30;;;;;;5082050;27;20521;-87
2022/04/20 03:57:57;;;;;;;7.40;4.67;;;10.50;39.70;;;;;;5096463;27;20442;-87
2022/04/20 04:00:26;;;;;;;6.70;4.07;;;10.50;39.90;;;;;;5071548;28;20566;-87
2022/04/20 04:02:56;;;;;;;5.30;4.40;;;10.50;39.90;;;;;;5079796;28;20473;-86
2022/04/20 04:05:33;;;;;;;6.30;4.30;;;10.40;40.30;;;;;;5082890;27;20486;-86
2022/04/20 04:08:15;;;;;;;5.83;4.80;;;10.40;40.40;;;;;;5088174;27;21233;-85
2022/04/20 04:10:44;;;;;;;5.53;4.93;;;10.30;40.50;;;;;;5077240;28;21034;-86
2022/04/20 04:13:12;;;;;;;5.23;4.03;;;10.30;40.70;;;;;;5072729;27;20499;-86
2022/04/20 04:15:43;;;;;;;4.67;3.63;;;10.40;40.80;;;;;;5073875;27;20945;-86
2022/04/20 04:18:12;;;;;;;4.67;3.77;;;10.40;40.50;;;;;;5066426;28;20438;-86
2022/04/20 04:20:47;;;;;;;5.07;4.20;;;10.40;40.50;;;;;;5083961;27;20547;-87
2022/04/20 04:23:17;;;;;;;13.13;4.40;;;10.30;40.00;;;;;;5072766;27;20442;-86
2022/04/20 04:26:02;;;;;;;7.30;5.07;;;10.30;40.80;;;;;;5081804;28;20445;-86
2022/04/20 04:28:53;;;;;;;7.30;4.10;;;10.30;40.70;;;;;;5089191;28;20533;-86
2022/04/20 04:31:22;;;;;;;6.53;3.80;;;10.10;41.00;;;;;;5082391;27;20431;-87
2022/04/20 04:33:52;;;;;;;3.83;3.33;;;10.10;41.10;;;;;;5080803;27;20526;-87
2022/04/20 04:36:22;;;;;;;5.23;3.27;;;10.20;41.10;;;;;;5086809;28;20446;-88
2022/04/20 04:38:54;;;;;;;4.13;2.87;;;10.20;40.80;;;;;;5088174;28;20469;-86
2022/04/20 04:41:27;;;;;;;4.10;3.50;;;10.20;40.80;;;;;;5089033;28;20469;-86
2022/04/20 04:43:58;;;;;;;5.00;3.40;;;10.20;40.90;;;;;;5088010;28;20446;-86
2022/04/20 04:49:25;;;;;;;3.87;3.10;;;10.30;41.70;;;;;;5065814;28;20455;-86
2022/04/20 04:51:55;;;;;;;5.90;3.07;;;10.30;41.00;;;;;;5065281;28;21061;-88
2022/04/20 04:54:24;;;;;;;4.50;3.63;;;10.30;41.30;;;;;;5076960;28;20472;-85
2022/04/20 04:56:52;;;;;;;4.07;3.40;;;10.20;41.70;;;;;;5090907;27;20439;-85
2022/04/20 04:59:20;;;;;;;4.33;3.87;;;10.20;41.30;;;;;;5060142;27;20474;-88
2022/04/20 05:01:51;;;;;;;4.67;3.40;;;10.20;41.30;;;;;;5080834;27;20436;-86
2022/04/20 05:04:20;;;;;;;5.40;3.50;;;10.30;41.10;;;;;;5076655;27;20438;-87
2022/04/20 05:06:52;;;;;;;3.70;3.23;;;10.30;41.00;;;;;;5073732;27;20446;-88
2022/04/20 05:09:44;;;;;;;13.03;3.60;;;10.30;40.80;;;;;;5076970;27;20970;-87
2022/04/20 05:12:11;;;;;;;4.77;3.47;;;10.30;41.00;;;;;;5086472;27;20907;-87
2022/04/20 05:14:42;;;;;;;6.23;3.40;;;10.30;41.00;;;;;;5076635;27;20446;-85
2022/04/20 05:17:11;;;;;;;6.03;4.77;;;10.30;41.20;;;;;;5100068;27;20434;-87
2022/04/20 05:19:39;;;;;;;5.80;4.27;;;10.30;41.20;;;;;;5071034;27;20459;-88
2022/04/20 05:22:16;;;;;;;6.20;4.60;;;10.40;41.50;;;;;;5084326;27;20434;-88
2022/04/20 05:24:45;;;;;;;5.97;4.30;;;10.30;41.50;;;;;;5065568;27;20534;-87
2022/04/20 05:27:16;;;;;;;5.30;4.47;;;10.30;41.40;;;;;;5096042;27;20814;-87
2022/04/20 05:30:14;;;;;;;8.77;5.93;;;10.30;41.40;;;;;;5086610;27;20461;-87
2022/04/20 05:32:43;;;;;;;7.67;6.87;;;10.40;41.80;;;;;;5078877;27;20442;-87
2022/04/20 05:35:18;;;;;;;6.00;5.50;;;10.30;42.20;;;;;;5061124;27;20466;-87
2022/04/20 05:43:32;;;;;;;5.77;5.10;;;10.30;42.90;;;;;;5086599;27;20454;-87
2022/04/20 05:46:00;;;;;;;5.50;5.00;;;10.30;42.70;;;;;;5079370;27;20452;-89
2022/04/20 05:48:48;;;;;;;5.93;5.33;;;10.30;42.70;;;;;;5073338;28;20449;-85
2022/04/20 05:51:17;;;;;;;9.37;5.83;;;10.30;42.80;;;;;;5082393;27;20570;-88
2022/04/20 05:53:45;;;;;;;8.33;6.70;;;10.30;42.70;;;;;;5089280;27;20433;-87
2022/04/20 05:56:16;;;;;;;8.07;6.20;;;10.40;42.90;;;;;;5099912;27;20470;-87
2022/04/20 05:58:50;;;;;;;12.93;5.47;;;10.40;43.30;;;;;;5082904;27;20528;-87
2022/04/20 06:01:22;;;;;;;7.10;4.90;;;10.40;43.20;;;;;;5080899;27;21360;-87
2022/04/20 06:03:59;;;;;;;5.37;3.83;;;10.40;43.90;;;;;;5082511;27;20443;-88
2022/04/20 06:06:37;;;;;;;4.60;4.10;;;10.40;43.70;;;;;;5084212;27;20537;-88
2022/04/20 06:09:14;;;;;;;5.53;4.27;;;10.40;43.60;;;;;;5080954;27;20442;-88
2022/04/20 06:11:52;;;;;;;7.90;4.83;;;10.40;42.90;;;;;;5083669;27;20522;-87
2022/04/20 06:14:24;;;;;;;7.97;4.77;;;10.40;42.90;;;;;;5081945;27;20525;-88
2022/04/20 06:17:21;;;;;;;4.63;4.23;;;10.50;43.00;;;;;;5018392;27;20575;-87
2022/04/20 06:19:55;;;;;;;5.80;4.60;;;10.40;42.40;;;;;;5070774;27;20511;-88
2022/04/20 06:22:50;;;;;;;6.33;4.47;;;10.30;43.80;;;;;;5078118;27;20448;-87
2022/04/20 06:25:41;;;;;;;6.23;4.37;;;10.40;43.90;;;;;;5118954;27;20460;-88
2022/04/20 06:28:40;;;;;;;5.50;4.13;;;10.60;43.70;;;;;;5090151;27;20438;-88
2022/04/20 06:31:27;;;;;;;4.93;3.70;;;10.70;43.50;;;;;;5099289;27;20423;-89
2022/04/20 06:34:12;;;;;;;5.10;4.07;;;10.70;43.20;;;;;;5070986;27;20473;-89
2022/04/20 06:36:53;;;;;;;7.33;4.70;;;10.80;43.10;;;;;;5065902;27;20446;-87
2022/04/20 06:39:27;;;;;;;5.53;4.57;;;10.90;43.30;;;;;;5084204;27;20462;-88
2022/04/20 06:42:12;;;;;;;8.40;4.40;;;10.90;43.20;;;;;;5076101;27;21075;-87
2022/04/20 06:45:13;;;;;;;4.70;4.17;;;11.00;43.30;;;;;;5033084;27;20434;-87
2022/04/20 06:48:01;;;;;;;5.47;4.00;;;11.00;43.80;;;;;;5073883;27;21001;-86
2022/04/20 06:50:46;;;;;;;9.00;5.23;;;11.00;43.10;;;;;;5082857;27;20459;-87
2022/04/20 06:59:02;;;;;;;7.47;4.10;;;11.00;43.60;;;;;;5081876;27;20434;-88
2022/04/20 07:01:51;;;;;;;6.83;4.23;;;11.20;44.00;;;;;;5074953;27;20557;-87
2022/04/20 07:04:38;;;;;;;5.30;3.93;;;11.30;44.00;;;;;;5075938;28;21213;-87
2022/04/20 07:07:30;;;;;;;5.03;3.93;;;11.40;43.50;;;;;;5080249;27;20526;-88
2022/04/20 07:10:01;;;;;;;5.27;4.40;;;11.40;43.20;;;;;;5063184;27;20497;-88
2022/04/20 07:12:40;;;;;;;5.00;4.50;;;11.30;43.80;;;;;;5075007;27;20443;-87
2022/04/20 07:15:09;;;;;;;5.50;4.33;;;11.60;43.70;;;;;;5057783;27;20466;-86
2022/04/20 07:17:39;;;;;;;4.70;4.10;;;11.70;42.90;;;;;;5064081;27;20447;-88
2022/04/20 07:20:39;;;;;;;6.00;4.00;;;12.00;42.30;;;;;;5076858;28;21026;-88
2022/04/20 07:23:16;;;;;;;8.30;4.67;;;12.10;41.60;;;;;;5082695;27;20483;-87
2022/04/20 07:25:52;;;;;;;4.50;4.10;;;12.20;42.50;;;;;;5083873;27;20538;-88
2022/04/20 07:28:25;;;;;;;6.60;3.90;;;12.20;42.10;;;;;;5080651;27;20446;-87
2022/04/20 07:31:12;;;;;;;4.10;3.40;;;12.30;41.60;;;;;;5088570;27;20486;-88
2022/04/20 07:33:48;;;;;;;4.37;3.57;;;12.40;41.70;;;;;;5086348;27;20439;-88
2022/04/20 07:36:40;;;;;;;3.70;3.30;;;12.50;41.00;;;;;;5076173;28;20527;-88
2022/04/20 07:39:29;;;;;;;4.10;3.70;;;12.60;39.30;;;;;;5095130;27;20827;-88
2022/04/20 07:42:03;;;;;;;5.33;3.73;;;12.90;39.80;;;;;;5111650;27;20469;-88
2022/04/20 07:44:45;;;;;;;3.80;3.47;;;13.00;39.00;;;;;;5075126;27;20492;-86
2022/04/20 07:47:32;;;;;;;4.00;3.23;;;13.30;38.30;;;;;;5091200;27;20465;-87
2022/04/20 07:50:21;;;;;;;7.83;4.93;;;13.10;37.50;;;;;;5082875;27;20490;-90
2022/04/20 07:57:38;;;;;;;8.27;4.20;;;13.10;37.80;;;;;;5087750;27;20927;-86
2022/04/20 08:00:46;;;;;;;9.83;3.20;;;13.30;38.10;;;;;;5049755;27;21169;-86
2022/04/20 08:04:17;;;;;;;8.67;5.17;;;13.30;37.30;;;;;;5092665;27;20438;-90
2022/04/20 08:07:01;;;;;;;6.00;3.87;;;13.50;37.00;;;;;;5071234;27;20481;-88
2022/04/20 08:09:30;;;;;;;8.13;4.87;;;13.80;36.80;;;;;;5087797;27;20470;-90
2022/04/20 08:12:00;;;;;;;5.23;3.87;;;14.10;36.10;;;;;;5064336;27;20435;-87
2022/04/20 08:14:28;;;;;;;10.03;6.00;;;13.90;35.90;;;;;;5088706;27;21890;-89
2022/04/20 08:17:18;;;;;;;8.53;5.40;;;14.00;35.30;;;;;;5086684;27;20435;-88
2022/04/20 08:19:46;;;;;;;7.10;5.60;;;14.30;34.90;;;;;;5094549;28;21001;-90
2022/04/20 08:22:18;;;;;;;5.23;4.50;;;14.20;34.70;;;;;;5089081;27;20454;-89
2022/04/20 08:24:47;;;;;;;6.80;4.97;;;14.20;34.70;;;;;;5063559;27;20993;-89
2022/04/20 08:27:15;;;;;;;5.43;4.70;;;14.20;34.70;;;;;;5077271;28;20531;-87
2022/04/20 08:29:45;;;;;;;5.20;4.70;;;14.20;33.80;;;;;;5094058;27;20461;-88
2022/04/20 08:32:13;;;;;;;4.87;4.37;;;14.00;35.10;;;;;;5082914;28;21210;-90
2022/04/20 08:34:42;;;;;;;7.93;4.37;;;14.30;35.00;;;;;;5106783;28;20513;-89
2022/04/20 08:37:10;;;;;;;5.60;4.17;;;14.50;34.00;;;;;;5094069;28;20976;-90
2022/04/20 08:39:40;;;;;;;5.90;4.80;;;14.80;33.90;;;;;;5087230;28;20493;-92
2022/04/20 08:42:12;;;;;;;8.43;5.90;;;14.80;34.00;;;;;;5071375;28;20497;-91
2022/04/20 08:44:46;;;;;;;5.87;4.53;;;14.90;33.00;;;;;;5067471;28;20457;-90
2022/04/20 08:47:19;;;;;;;5.33;4.13;;;15.10;31.50;;;;;;5081858;28;20473;-93
2022/04/20 08:49:49;;;;;;;5.33;4.83;;;15.10;31.40;;;;;;5075591;28;20482;-88
2022/04/20 08:55:08;;;;;;;5.47;4.10;;;15.20;31.60;;;;;;5064933;28;20458;-87
2022/04/20 08:57:38;;;;;;;6.37;4.10;;;15.20;30.30;;;;;;5075084;28;20446;-85
2022/04/20 09:00:09;;;;;;;7.47;5.97;;;15.40;30.30;;;;;;5078928;28;21328;-90
2022/04/20 09:02:37;;;;;;;14.23;4.20;;;15.60;29.20;;;;;;5085446;28;20477;-90
2022/04/20 09:05:07;;;;;;;4.93;4.27;;;15.70;28.20;;;;;;5067507;28;20434;-90
2022/04/20 09:07:34;;;;;;;5.80;3.90;;;15.90;27.80;;;;;;5094761;28;20447;-89
2022/04/20 09:10:02;;;;;;;5.07;3.80;;;16.00;27.40;;;;;;5114103;28;20458;-89
2022/04/20 09:12:32;;;;;;;6.63;3.80;;;16.20;27.50;;;;;;5085025;28;20456;-88
2022/04/20 09:15:01;;;;;;;4.33;3.93;;;16.30;27.70;;;;;;5097902;28;20450;-88
2022/04/20 09:17:31;;;;;;;4.20;3.87;;;16.50;27.30;;;;;;5092953;28;20509;-87
2022/04/20 09:19:59;;;;;;;4.93;4.40;;;16.30;27.80;;;;;;5090940;28;20458;-90
2022/04/20 09:22:27;;;;;;;8.03;5.97;;;16.50;26.30;;;;;;5093529;28;20460;-88
2022/04/20 09:25:06;;;;;;;4.10;3.70;;;16.60;27.00;;;;;;5057171;28;21307;-87
2022/04/20 09:27:39;;;;;;;4.07;3.30;;;16.90;26.90;;;;;;5103647;28;20442;-90
2022/04/20 09:30:11;;;;;;;6.60;4.00;;;16.90;26.10;;;;;;5062540;28;20466;-90
2022/04/20 09:32:40;;;;;;;4.90;3.70;;;17.00;26.20;;;;;;5077295;28;20438;-88
2022/04/20 09:35:12;;;;;;;4.90;4.30;;;16.90;25.60;;;;;;5067191;28;20470;-84
2022/04/20 09:37:42;;;;;;;4.60;3.67;;;17.20;25.90;;;;;;5083586;28;20550;-89
2022/04/20 09:40:33;;;;;;;7.87;4.43;;;17.30;25.70;;;;;;5070610;28;20478;-93
2022/04/20 09:43:06;;;;;;;5.50;3.90;;;17.50;25.90;;;;;;5094361;27;20515;-91
2022/04/20 09:45:35;;;;;;;12.10;5.43;;;17.20;25.40;;;;;;5065882;27;20451;-90
2022/04/20 09:51:08;;;;;;;4.43;4.00;;;17.70;25.40;;;;;;5089901;27;20450;-90
2022/04/20 09:53:37;;;;;;;4.67;4.20;;;17.80;25.70;;;;;;5090450;27;20435;-92
2022/04/20 09:56:21;;;;;;;4.27;3.87;;;17.80;25.30;;;;;;5063794;27;20811;-91
2022/04/20 09:58:59;;;;;;;4.77;3.90;;;17.60;26.20;;;;;;5093814;27;20445;-90
2022/04/20 10:01:31;;;;;;;3.93;3.20;;;17.60;26.30;;;;;;5083533;27;21054;-91
2022/04/20 10:04:01;;;;;;;4.40;4.00;;;17.60;26.30;;;;;;5081679;27;20444;-90
2022/04/20 10:06:29;;;;;;;6.03;4.90;;;17.90;25.90;;;;;;5117468;27;21016;-92
2022/04/20 10:08:58;;;;;;;6.40;4.40;;;18.30;25.70;;;;;;5091327;27;20439;-90
2022/04/20 10:11:27;;;;;;;7.23;4.20;;;18.70;25.10;;;;;;5101610;27;20525;-92
2022/04/20 10:16:48;;;;;;;4.90;3.60;;;19.40;24.70;;;;;;5068168;27;20439;-91
2022/04/20 10:19:22;;;;;;;3.60;3.30;;;19.10;23.60;;;;;;5082435;27;20447;-91
2022/04/20 10:21:53;;;;;;;4.57;3.23;;;19.00;24.20;;;;;;5096083;27;20466;-89
2022/04/20 10:24:35;;;;;;;9.60;4.83;;;19.10;24.00;;;;;;5085038;27;20434;-90
2022/04/20 10:27:11;;;;;;;7.20;5.90;;;19.20;23.40;;;;;;5090731;27;20526;-87
2022/04/20 10:29:47;;;;;;;5.67;4.30;;;19.60;23.40;;;;;;5081543;27;20488;-89
2022/04/20 10:32:22;;;;;;;9.67;5.33;;;19.70;22.90;;;;;;5113552;27;20687;-89
2022/04/20 10:34:54;;;;;;;5.97;5.37;;;19.20;23.20;;;;;;5082592;27;21185;-91
2022/04/20 10:37:33;;;;;;;5.47;4.43;;;19.10;23.00;;;;;;5070244;27;20952;-89
2022/04/20 10:40:21;;;;;;;5.17;4.30;;;18.60;23.70;;;;;;5091286;27;20474;-92
2022/04/20 10:43:21;;;;;;;4.53;4.13;;;19.00;23.80;;;;;;5093974;27;20523;-90
2022/04/20 10:46:05;;;;;;;4.70;3.67;;;19.20;22.90;;;;;;5096571;27;20439;-91
2022/04/20 10:48:53;;;;;;;3.93;3.30;;;19.40;22.40;;;;;;5087271;27;20526;-91
2022/04/20 10:51:23;;;;;;;4.47;4.07;;;19.50;22.60;;;;;;5094081;27;20463;-87
2022/04/20 10:53:54;;;;;;;3.80;3.40;;;19.50;21.40;;;;;;5085669;27;20450;-88
2022/04/20 10:56:23;;;;;;;4.30;3.90;;;19.80;20.80;;;;;;5082262;27;20439;-91
2022/04/20 10:59:10;;;;;;;6.33;3.13;;;20.00;21.00;;;;;;5082826;27;20449;-90
2022/04/20 11:02:09;;;;;;;5.80;4.07;;;20.00;21.70;;;;;;5079456;27;20461;-91
2022/04/20 11:04:41;;;;;;;4.60;3.63;;;19.80;20.90;;;;;;5098003;27;20867;-91
2022/04/20 11:07:26;;;;;;;4.77;3.90;;;20.10;22.30;;;;;;5109143;27;20442;-89
2022/04/20 11:10:05;;;;;;;3.70;3.30;;;20.00;21.50;;;;;;5076963;27;20465;-92
2022/04/20 11:18:59;;;;;;;3.80;3.33;;;20.10;21.80;;;;;;5071113;27;20830;-89
2022/04/20 11:21:37;;;;;;;3.70;3.40;;;20.30;21.60;;;;;;5088642;27;20459;-89
2022/04/20 11:24:07;;;;;;;5.00;3.90;;;20.60;21.00;;;;;;5074797;27;20437;-90
2022/04/20 11:26:39;;;;;;;3.10;2.90;;;20.70;20.80;;;;;;5085828;27;20450;-90
2022/04/20 11:29:14;;;;;;;4.37;3.40;;;20.50;21.90;;;;;;5082880;27;20446;-91
2022/04/20 11:31:45;;;;;;;3.20;2.90;;;20.70;20.90;;;;;;5081718;27;20504;-91
2022/04/20 11:34:18;;;;;;;3.87;3.50;;;20.90;20.30;;;;;;5099245;27;20434;-91
2022/04/20 11:36:48;;;;;;;3.60;3.30;;;21.20;19.50;;;;;;5096988;27;20434;-90
2022/04/20 11:39:19;;;;;;;3.43;3.13;;;21.10;19.80;;;;;;5071416;27;21225;-91
2022/04/20 11:41:48;;;;;;;3.80;3.50;;;21.30;20.80;;;;;;5075336;27;20550;-90
2022/04/20 11:44:22;;;;;;;4.80;3.50;;;21.20;20.40;;;;;;5090685;27;20507;-90
2022/04/20 11:46:50;;;;;;;3.83;3.53;;;21.10;20.40;;;;;;5093291;27;20449;-89
2022/04/20 11:49:20;;;;;;;4.43;3.50;;;20.80;20.30;;;;;;5084827;27;20447;-87
2022/04/20 11:51:57;;;;;;;5.20;4.10;;;21.00;20.60;;;;;;5063174;27;20446;-88
2022/04/20 11:54:27;;;;;;;5.33;3.57;;;21.50;21.00;;;;;;5064092;27;20446;-88
2022/04/20 11:57:08;;;;;;;3.70;3.23;;;21.00;20.70;;;;;;5060411;27;20448;-86
2022/04/20 11:59:44;;;;;;;4.23;3.83;;;21.00;20.70;;;;;;5059665;28;20466;-90
2022/04/20 12:02:13;;;;;;;4.77;4.00;;;20.60;19.80;;;;;;5061986;27;20457;-89
2022/04/20 12:04:44;;;;;;;3.60;3.30;;;21.10;20.50;;;;;;5077554;27;20446;-90
2022/04/20 12:07:16;;;;;;;5.00;4.00;;;21.20;20.60;;;;;;5083188;27;20542;-90
2022/04/20 12:09:47;;;;;;;7.40;3.80;;;21.20;20.70;;;;;;5092953;28;21088;-87
2022/04/20 12:12:16;;;;;;;4.10;3.27;;;21.30;20.10;;;;;;5087145;27;21039;-85
2022/04/20 12:14:46;;;;;;;6.93;3.50;;;21.20;20.30;;;;;;5107185;27;20439;-89
2022/04/20 12:17:20;;;;;;;4.83;3.40;;;21.50;19.80;;;;;;5081610;27;20441;-90
2022/04/20 12:19:53;;;;;;;4.07;3.60;;;21.00;20.20;;;;;;5079784;27;20469;-90
2022/04/20 12:22:22;;;;;;;3.10;2.87;;;21.00;20.70;;;;;;5082539;28;20482;-89
2022/04/20 12:25:05;;;;;;;4.47;3.20;;;21.10;19.20;;;;;;5075966;28;20438;-87
2022/04/20 12:27:50;;;;;;;5.87;3.03;;;21.50;19.60;;;;;;5102292;27;20443;-87
2022/04/20 12:30:35;;;;;;;3.97;3.57;;;21.60;20.00;;;;;;5090430;28;20474;-91
2022/04/20 12:33:05;;;;;;;4.67;2.97;;;21.70;18.80;;;;;;5081433;28;20441;-91
2022/04/20 12:35:35;;;;;;;7.80;3.67;;;21.60;19.50;;;;;;5080952;28;20439;-89
2022/04/20 12:38:16;;;;;;;3.33;3.03;;;21.90;19.30;;;;;;5059969;28;20441;-88
2022/04/20 12:40:43;;;;;;;4.53;3.20;;;21.70;19.10;;;;;;5090831;28;21154;-87
2022/04/20 12:43:13;;;;;;;2.90;2.70;;;21.60;19.50;;;;;;5058536;28;20464;-87
2022/04/20 12:45:46;;;;;;;3.13;2.93;;;21.80;18.60;;;;;;5094584;28;20548;-88
2022/04/20 12:48:13;;;;;;;3.07;2.87;;;22.10;18.90;;;;;;5114692;28;20519;-89
2022/04/20 12:50:45;;;;;;;3.63;3.30;;;22.40;18.30;;;;;;5092493;28;20458;-90
2022/04/20 12:53:12;;;;;;;3.50;3.20;;;22.50;17.90;;;;;;5080146;28;20434;-88
2022/04/20 13:02:01;;;;;;;4.10;3.07;;;22.20;18.60;;;;;;5077769;28;20458;-90
2022/04/20 13:04:12;;;;;;;5.07;3.00;;;22.70;17.80;;;;;;5075260;28;21196;-87
2022/04/20 13:06:42;;;;;;;3.57;2.97;;;22.60;18.40;;;;;;5078046;28;20479;-88
2022/04/20 13:09:10;;;;;;;3.93;3.40;;;22.00;18.40;;;;;;5090532;28;20454;-86
2022/04/20 13:11:38;;;;;;;3.40;3.00;;;22.20;18.80;;;;;;5093680;28;20453;-89
2022/04/20 13:14:08;;;;;;;3.07;2.87;;;21.90;18.60;;;;;;5083832;28;20466;-90
2022/04/20 13:16:36;;;;;;;3.40;3.10;;;21.90;18.30;;;;;;5059683;28;20438;-87
2022/04/20 13:19:04;;;;;;;3.40;3.10;;;22.00;18.50;;;;;;5077364;27;20512;-89
2022/04/20 13:21:32;;;;;;;4.53;3.33;;;22.40;19.30;;;;;;5068943;27;20516;-87
2022/04/20 13:24:02;;;;;;;3.60;3.10;;;22.60;19.20;;;;;;5072402;27;20473;-87
2022/04/20 13:29:16;;;;;;;3.30;2.93;;;22.60;19.20;;;;;;5085810;27;20484;-88
2022/04/20 13:31:44;;;;;;;4.10;2.90;;;22.70;20.10;;;;;;5094375;27;20902;-89
2022/04/20 13:34:13;;;;;;;3.20;2.90;;;22.80;19.30;;;;;;5093166;27;20445;-88
2022/04/20 13:36:41;;;;;;;3.50;3.20;;;22.80;19.60;;;;;;5067780;27;20457;-87
2022/04/20 13:39:10;;;;;;;3.57;3.27;;;22.70;19.40;;;;;;5073729;27;20532;-88
2022/04/20 13:41:39;;;;;;;3.73;3.20;;;22.70;20.00;;;;;;5091100;27;20484;-84
2022/04/20 13:44:08;;;;;;;3.93;3.30;;;22.60;20.40;;;;;;5093948;27;20951;-90
2022/04/20 13:46:36;;;;;;;3.30;3.00;;;22.80;20.70;;;;;;5101147;27;20447;-88
2022/04/20 13:49:03;;;;;;;4.03;3.60;;;23.10;20.50;;;;;;5098334;27;20454;-89
2022/04/20 13:51:31;;;;;;;5.60;4.10;;;23.30;20.90;;;;;;5101729;27;20448;-90
2022/04/20 13:53:59;;;;;;;3.90;2.93;;;23.30;20.60;;;;;;5098222;27;20987;-85
2022/04/20 13:56:31;;;;;;;3.63;3.30;;;23.00;21.10;;;;;;5098362;27;21077;-89
2022/04/20 13:58:59;;;;;;;3.60;3.20;;;23.20;21.00;;;;;;5094374;28;20444;-90
2022/04/20 14:01:26;;;;;;;4.67;3.60;;;23.10;20.90;;;;;;5077350;27;20808;-88
2022/04/20 14:03:54;;;;;;;3.70;3.40;;;23.10;21.10;;;;;;5078830;27;20474;-90
2022/04/20 14:06:22;;;;;;;3.90;3.50;;;23.20;20.60;;;;;;5081766;27;20466;-90
2022/04/20 14:08:50;;;;;;;3.13;2.80;;;23.10;21.30;;;;;;5069446;27;20445;-83